Time;durP1;ratioP1;P1;durP2;ratioP2;P2;SDS_P1;SDS_P2;PMS_P1;PMS_P2;Temp;Humidity;BMP_temperature;BMP_pressure;BME280_temperature;BME280_humidity;BME280_pressure;Samples;Min_cycle;Max_cycle;Signal;HPM_P1;HPM_P2
2021/05/12 00:00:25;;;;;;;15.30;7.38;;;;;;;9.93;73.94;101278.75;5038134;28;20222;-72
2021/05/12 00:02:53;;;;;;;19.33;6.45;;;;;;;9.88;73.12;101276.19;5038546;28;20057;-72
2021/05/12 00:05:22;;;;;;;12.57;5.95;;;;;;;9.84;72.24;101278.06;5034429;28;20232;-72
2021/05/12 00:07:51;;;;;;;13.70;5.75;;;;;;;9.81;71.04;101271.91;5043863;28;20072;-73
2021/05/12 00:10:21;;;;;;;10.95;4.70;;;;;;;9.79;71.31;101279.94;5035628;28;20092;-71
2021/05/12 00:12:49;;;;;;;16.20;5.25;;;;;;;9.76;70.78;101284.47;5042299;28;20060;-71
2021/05/12 00:15:18;;;;;;;11.38;4.53;;;;;;;9.72;70.04;101276.53;5036653;28;20065;-71
2021/05/12 00:17:48;;;;;;;12.32;4.50;;;;;;;9.69;69.44;101279.25;5038908;28;20060;-71
2021/05/12 00:20:21;;;;;;;9.82;4.40;;;;;;;9.66;69.71;101276.66;5041417;28;20075;-71
2021/05/12 00:22:52;;;;;;;12.68;4.03;;;;;;;9.65;69.41;101282.91;5042091;28;20103;-72
2021/05/12 00:25:21;;;;;;;10.50;3.92;;;;;;;9.60;69.36;101273.25;5035533;28;20061;-72
2021/05/12 00:27:49;;;;;;;12.50;4.22;;;;;;;9.58;68.81;101277.72;5042847;28;20056;-71
2021/05/12 00:30:19;;;;;;;10.65;3.83;;;;;;;9.52;70.12;101276.09;5035845;28;20405;-71
2021/05/12 00:32:46;;;;;;;8.38;3.63;;;;;;;9.45;69.55;101275.31;5042533;28;20151;-71
2021/05/12 00:35:14;;;;;;;13.50;3.70;;;;;;;9.41;70.49;101273.63;5034522;28;20064;-71
2021/05/12 00:37:42;;;;;;;8.15;4.15;;;;;;;9.35;69.74;101277.28;5053561;28;20060;-71
2021/05/12 00:40:12;;;;;;;12.13;4.07;;;;;;;9.32;69.78;101269.34;5037496;28;20579;-71
2021/05/12 00:42:41;;;;;;;12.65;4.47;;;;;;;9.29;70.83;101276.53;5037608;28;20253;-72
2021/05/12 00:45:13;;;;;;;8.80;3.50;;;;;;;9.24;70.48;101275.75;5035703;28;20115;-71
2021/05/12 00:47:40;;;;;;;8.98;3.70;;;;;;;9.20;71.00;101285.59;5040189;28;20061;-71
2021/05/12 00:50:10;;;;;;;11.65;4.20;;;;;;;9.14;70.76;101281.25;5038118;28;20122;-71
2021/05/12 00:52:37;;;;;;;10.20;3.95;;;;;;;9.12;71.57;101284.84;5039505;28;20448;-72
2021/05/12 00:55:06;;;;;;;11.43;4.13;;;;;;;9.05;72.21;101284.06;5040081;28;20257;-71
2021/05/12 00:57:35;;;;;;;10.65;3.70;;;;;;;9.03;72.11;101279.72;5039676;28;20069;-71
2021/05/12 01:00:06;;;;;;;8.23;3.75;;;;;;;8.94;72.22;101281.63;5038732;28;20064;-71
2021/05/12 01:02:33;;;;;;;11.45;4.18;;;;;;;8.92;73.76;101280.78;5035087;28;20069;-72
2021/05/12 01:05:02;;;;;;;10.63;4.47;;;;;;;8.85;73.85;101296.88;5038787;28;20099;-71
2021/05/12 01:07:29;;;;;;;12.77;4.57;;;;;;;8.81;74.80;101296.06;5037591;28;20127;-71
2021/05/12 01:09:57;;;;;;;15.57;4.80;;;;;;;8.73;74.78;101296.16;5035064;28;20295;-71
2021/05/12 01:12:24;;;;;;;10.15;4.43;;;;;;;8.68;74.58;101300.69;5035345;28;20073;-71
2021/05/12 01:14:51;;;;;;;12.25;4.20;;;;;;;8.61;74.50;101291.06;5040106;28;20268;-71
2021/05/12 01:17:19;;;;;;;15.38;5.05;;;;;;;8.55;75.02;101297.38;5035207;28;20068;-71
2021/05/12 01:19:48;;;;;;;10.15;4.53;;;;;;;8.53;75.64;101298.28;5038623;28;20069;-71
2021/05/12 01:22:16;;;;;;;12.43;4.57;;;;;;;8.50;75.86;101296.56;5036765;28;20099;-71
2021/05/12 01:24:43;;;;;;;9.60;4.57;;;;;;;8.49;75.97;101296.59;5038262;28;20057;-72
2021/05/12 01:27:10;;;;;;;10.30;4.38;;;;;;;8.44;76.11;101295.78;5038537;28;20061;-71
2021/05/12 01:29:38;;;;;;;10.95;4.75;;;;;;;8.42;76.68;101301.09;5037366;28;20364;-71
2021/05/12 01:32:06;;;;;;;10.32;4.78;;;;;;;8.38;76.23;101296.75;5036746;28;20062;-71
2021/05/12 01:34:33;;;;;;;12.40;4.80;;;;;;;8.37;77.55;101297.63;5036516;28;20092;-72
2021/05/12 01:37:01;;;;;;;13.07;5.00;;;;;;;8.34;77.31;101303.88;5032592;28;20143;-71
2021/05/12 01:39:29;;;;;;;11.32;4.72;;;;;;;8.29;77.06;101308.41;5038050;28;20057;-72
2021/05/12 01:41:56;;;;;;;11.30;4.93;;;;;;;8.28;77.42;101305.75;5031562;28;20783;-71
2021/05/12 01:44:23;;;;;;;10.02;4.60;;;;;;;8.30;79.13;101317.25;5039112;28;20064;-71
2021/05/12 01:46:51;;;;;;;10.05;5.25;;;;;;;8.28;77.89;101311.94;5035691;28;20060;-71
2021/05/12 01:49:20;;;;;;;11.65;5.32;;;;;;;8.26;77.78;101326.16;5033790;28;20060;-71
2021/05/12 01:51:48;;;;;;;10.95;4.78;;;;;;;8.26;78.41;101326.16;5033009;28;20069;-72
2021/05/12 01:54:17;;;;;;;15.25;4.88;;;;;;;8.27;77.42;101330.56;5039626;28;20068;-72
2021/05/12 01:56:45;;;;;;;14.05;5.25;;;;;;;8.33;77.84;101342.00;5035263;28;20348;-72
2021/05/12 01:59:12;;;;;;;12.60;5.20;;;;;;;8.32;77.81;101334.06;5034938;28;20062;-72
2021/05/12 02:01:40;;;;;;;13.68;5.75;;;;;;;8.34;78.26;101335.81;5039190;28;20056;-72
2021/05/12 02:04:10;;;;;;;14.15;5.60;;;;;;;8.37;78.21;101333.06;5044880;28;20075;-72
2021/05/12 02:06:37;;;;;;;16.42;5.70;;;;;;;8.41;78.30;101337.47;5034661;28;20061;-72
2021/05/12 02:09:07;;;;;;;13.63;5.90;;;;;;;8.38;78.70;101333.97;5040704;28;20357;-72
2021/05/12 02:11:35;;;;;;;16.10;6.00;;;;;;;8.37;79.20;101335.72;5036673;28;20554;-72
2021/05/12 02:14:05;;;;;;;12.98;5.65;;;;;;;8.35;78.97;101321.59;5041963;28;20061;-71
2021/05/12 02:16:33;;;;;;;13.63;6.25;;;;;;;8.33;79.29;101328.72;5038890;28;20085;-72
2021/05/12 02:19:00;;;;;;;17.83;7.43;;;;;;;8.30;79.09;101323.44;5041661;28;20071;-71
2021/05/12 02:21:27;;;;;;;12.40;5.38;;;;;;;8.28;79.60;101319.06;5039232;28;20144;-71
2021/05/12 02:23:55;;;;;;;14.95;6.03;;;;;;;8.23;79.64;101319.13;5049435;28;21283;-71
2021/05/12 02:26:22;;;;;;;11.85;5.43;;;;;;;8.18;79.77;101316.50;5039253;28;20222;-71
2021/05/12 02:28:49;;;;;;;12.80;6.00;;;;;;;8.11;79.86;101316.63;5036160;28;20091;-71
2021/05/12 02:31:17;;;;;;;14.88;6.75;;;;;;;8.05;78.92;101301.63;5039673;28;20061;-71
2021/05/12 02:33:44;;;;;;;12.60;6.28;;;;;;;8.01;80.08;101308.78;5041637;28;20062;-72
2021/05/12 02:36:12;;;;;;;13.93;6.05;;;;;;;7.98;80.40;101307.94;5039771;28;20064;-72
2021/05/12 02:38:39;;;;;;;16.15;6.50;;;;;;;7.94;80.17;101304.47;5034091;28;20056;-72
2021/05/12 02:41:07;;;;;;;14.45;5.80;;;;;;;7.89;80.69;101311.63;5041420;28;20387;-72
2021/05/12 02:43:34;;;;;;;15.10;6.10;;;;;;;7.87;81.00;101313.41;5038380;28;20065;-72
2021/05/12 02:46:01;;;;;;;14.57;6.53;;;;;;;7.85;81.43;101304.59;5040136;28;20065;-72
2021/05/12 02:48:29;;;;;;;14.07;6.70;;;;;;;7.82;81.36;101296.66;5039321;28;20065;-71
2021/05/12 02:50:57;;;;;;;14.77;6.22;;;;;;;7.79;81.51;101294.03;5040848;28;20406;-71
2021/05/12 02:53:24;;;;;;;17.48;7.07;;;;;;;7.70;81.04;101302.13;5038959;28;20079;-71
2021/05/12 02:55:51;;;;;;;18.35;7.18;;;;;;;7.68;82.00;101304.81;5041534;28;20061;-71
2021/05/12 02:58:18;;;;;;;17.23;6.60;;;;;;;7.62;81.58;101300.44;5040588;28;20065;-72
2021/05/12 03:00:46;;;;;;;14.65;7.20;;;;;;;7.58;81.80;101297.84;5036363;28;20049;-72
2021/05/12 03:03:13;;;;;;;17.88;8.98;;;;;;;7.55;82.18;101312.03;5038936;28;20061;-71
2021/05/12 03:05:42;;;;;;;15.20;6.18;;;;;;;7.53;82.59;101308.53;5037334;28;20459;-71
2021/05/12 03:08:09;;;;;;;14.52;6.45;;;;;;;7.50;81.90;101307.69;5043412;28;20287;-72
2021/05/12 03:10:38;;;;;;;13.30;6.28;;;;;;;7.50;82.46;101313.88;5041722;28;20068;-72
2021/05/12 03:13:06;;;;;;;14.10;6.80;;;;;;;7.45;82.33;101310.38;5038593;28;20060;-71
2021/05/12 03:15:34;;;;;;;13.40;6.55;;;;;;;7.44;82.06;101313.94;5039020;28;20061;-71
2021/05/12 03:18:03;;;;;;;19.38;7.97;;;;;;;7.49;83.64;101309.44;5041682;28;20056;-71
2021/05/12 03:20:31;;;;;;;16.98;7.13;;;;;;;7.47;83.08;101314.81;5036383;28;20059;-71
2021/05/12 03:23:00;;;;;;;20.48;7.78;;;;;;;7.48;82.59;101315.66;5052709;28;20061;-71
2021/05/12 03:25:27;;;;;;;20.80;7.97;;;;;;;7.52;84.06;101308.53;5038929;28;20096;-71
2021/05/12 03:27:55;;;;;;;16.40;7.88;;;;;;;7.52;84.06;101317.38;5038162;28;21660;-70
2021/05/12 03:30:25;;;;;;;20.60;8.65;;;;;;;7.57;84.70;101322.66;5041598;28;20505;-72
2021/05/12 03:32:53;;;;;;;24.92;10.88;;;;;;;7.61;84.98;101322.59;5038807;28;20084;-72
2021/05/12 03:35:20;;;;;;;25.80;12.02;;;;;;;7.69;85.29;101319.84;5038311;28;20057;-71
2021/05/12 03:37:49;;;;;;;32.70;14.63;;;;;;;7.79;86.50;101320.59;5035428;28;20068;-71
2021/05/12 03:40:19;;;;;;;33.85;15.07;;;;;;;7.82;86.07;101328.53;5041213;28;20061;-71
2021/05/12 03:42:46;;;;;;;35.70;16.52;;;;;;;7.88;86.53;101330.22;5036849;28;20107;-71
2021/05/12 03:45:14;;;;;;;37.67;16.80;;;;;;;7.99;87.09;101329.19;5040876;28;21233;-71
2021/05/12 03:47:46;;;;;;;38.17;16.88;;;;;;;8.07;86.87;101341.50;5036870;28;20091;-71
2021/05/12 03:50:14;;;;;;;41.17;19.83;;;;;;;8.15;87.34;101344.94;5044701;28;20144;-72
2021/05/12 03:52:41;;;;;;;45.75;20.85;;;;;;;8.18;87.24;101344.88;5036802;28;20921;-71
2021/05/12 03:55:10;;;;;;;42.90;19.92;;;;;;;8.15;86.81;101351.09;5037897;28;20072;-71
2021/05/12 03:57:38;;;;;;;43.55;20.13;;;;;;;8.16;86.70;101347.56;5035328;28;20056;-71
2021/05/12 04:00:08;;;;;;;43.60;20.58;;;;;;;8.20;87.36;101356.38;5042256;28;20062;-71
2021/05/12 04:02:35;;;;;;;44.28;19.90;;;;;;;8.19;87.04;101358.16;5035525;28;20069;-71
2021/05/12 04:05:02;;;;;;;45.22;20.90;;;;;;;8.21;87.36;101356.34;5040779;28;20065;-71
2021/05/12 04:07:30;;;;;;;41.63;20.08;;;;;;;8.28;87.49;101354.50;5041061;28;20068;-72
2021/05/12 04:09:57;;;;;;;52.80;22.45;;;;;;;8.35;87.84;101349.97;5035573;28;20518;-72
2021/05/12 04:12:24;;;;;;;48.42;21.95;;;;;;;8.39;87.98;101356.97;5037700;28;20485;-72
2021/05/12 04:14:52;;;;;;;43.25;19.83;;;;;;;8.40;87.39;101367.59;5043896;28;20456;-72
2021/05/12 04:17:19;;;;;;;51.38;21.42;;;;;;;8.50;87.05;101363.06;5040367;28;20291;-71
2021/05/12 04:19:47;;;;;;;44.15;18.33;;;;;;;8.49;86.33;101363.09;5035443;28;20068;-72
2021/05/12 04:22:15;;;;;;;41.88;19.08;;;;;;;8.48;86.30;101358.66;5036416;28;20067;-73
2021/05/12 04:24:43;;;;;;;48.97;22.38;;;;;;;8.45;86.70;101362.25;5038762;28;20053;-72
2021/05/12 04:27:11;;;;;;;41.53;19.23;;;;;;;8.41;86.28;101358.72;5037605;28;20068;-72
2021/05/12 04:29:38;;;;;;;49.22;19.60;;;;;;;8.44;86.45;101359.63;5037412;28;20056;-72
2021/05/12 04:32:07;;;;;;;42.67;18.67;;;;;;;8.47;86.42;101365.75;5036410;28;20060;-72
2021/05/12 04:34:34;;;;;;;38.67;18.58;;;;;;;8.48;86.42;101367.53;5040027;28;20075;-73
2021/05/12 04:37:07;;;;;;;37.40;18.73;;;;;;;8.53;86.87;101370.09;5039185;28;20111;-72
2021/05/12 04:39:34;;;;;;;44.40;19.08;;;;;;;8.50;86.23;101371.03;5038265;28;20095;-72
2021/05/12 04:42:01;;;;;;;36.10;16.30;;;;;;;8.52;86.19;101363.91;5036067;28;20065;-72
2021/05/12 04:44:29;;;;;;;37.20;15.65;;;;;;;8.55;86.18;101365.66;5037164;28;20068;-72
2021/05/12 04:46:56;;;;;;;34.63;16.27;;;;;;;8.57;85.83;101370.03;5039967;28;20075;-72
2021/05/12 04:49:25;;;;;;;35.03;14.60;;;;;;;8.60;86.00;101370.00;5040030;28;20444;-72
2021/05/12 04:51:53;;;;;;;39.70;16.48;;;;;;;8.69;86.33;101360.13;5033884;28;20477;-72
2021/05/12 04:54:20;;;;;;;42.85;16.83;;;;;;;8.68;86.17;101358.34;5037840;28;20057;-72
2021/05/12 04:56:49;;;;;;;39.65;16.60;;;;;;;8.67;86.01;101360.16;5038637;28;20054;-72
2021/05/12 04:59:17;;;;;;;41.03;15.40;;;;;;;8.68;86.02;101366.34;5042553;28;20613;-72
2021/05/12 05:01:45;;;;;;;39.33;15.82;;;;;;;8.76;86.13;101367.09;5040938;28;20060;-75
2021/05/12 05:04:16;;;;;;;38.33;14.65;;;;;;;8.87;85.81;101362.50;5034868;28;20141;-71
2021/05/12 05:06:44;;;;;;;35.90;15.13;;;;;;;9.04;85.26;101362.22;5040832;28;20067;-73
2021/05/12 05:09:11;;;;;;;40.08;15.88;;;;;;;9.27;84.59;101361.78;5037121;28;20088;-73
2021/05/12 05:11:39;;;;;;;46.72;15.35;;;;;;;9.50;83.95;101363.13;5042469;28;20473;-74
2021/05/12 05:14:07;;;;;;;35.22;14.52;;;;;;;9.79;83.09;101359.00;5035247;28;20146;-73
2021/05/12 05:16:35;;;;;;;29.00;12.32;;;;;;;10.00;81.88;101360.34;5036965;28;20424;-71
2021/05/12 05:19:02;;;;;;;30.92;11.77;;;;;;;10.28;80.50;101360.63;5038151;28;20068;-72
2021/05/12 05:21:30;;;;;;;25.55;10.88;;;;;;;10.52;79.99;101366.34;5034756;28;20064;-72
2021/05/12 05:23:59;;;;;;;28.08;10.63;;;;;;;10.80;78.94;101366.56;5038000;28;20071;-72
2021/05/12 05:26:26;;;;;;;26.38;9.85;;;;;;;10.98;77.38;101367.88;5043639;28;20499;-72
2021/05/12 05:28:53;;;;;;;22.85;8.38;;;;;;;11.12;76.97;101371.09;5038009;28;20064;-71
2021/05/12 05:31:21;;;;;;;26.63;8.60;;;;;;;11.27;76.17;101360.91;5038803;28;20067;-71
2021/05/12 05:33:49;;;;;;;24.35;7.63;;;;;;;11.47;74.97;101366.59;5041297;28;20060;-72
2021/05/12 05:36:16;;;;;;;22.08;6.20;;;;;;;11.58;74.65;101366.31;5043022;28;20065;-73
2021/05/12 05:38:43;;;;;;;18.27;6.78;;;;;;;11.91;73.95;101374.31;5040005;28;20480;-72
2021/05/12 05:41:11;;;;;;;15.40;5.05;;;;;;;12.05;72.28;101371.22;5043453;28;20060;-71
2021/05/12 05:43:39;;;;;;;19.50;5.00;;;;;;;12.40;71.77;101366.63;5038548;28;20368;-71
2021/05/12 05:46:06;;;;;;;18.83;4.90;;;;;;;12.55;71.24;101375.94;5044073;28;20495;-71
2021/05/12 05:48:33;;;;;;;15.20;4.55;;;;;;;12.58;70.69;101370.50;5037945;28;20056;-74
2021/05/12 05:51:01;;;;;;;17.90;4.47;;;;;;;12.79;69.80;101371.63;5042262;28;20060;-72
2021/05/12 05:53:28;;;;;;;17.17;4.13;;;;;;;12.71;69.14;101372.72;5043105;28;20061;-71
2021/05/12 05:55:55;;;;;;;14.05;3.53;;;;;;;13.00;68.78;101370.88;5044111;28;20337;-72
2021/05/12 05:58:24;;;;;;;17.25;4.72;;;;;;;12.98;68.34;101369.19;5038516;28;20156;-72
2021/05/12 06:00:51;;;;;;;16.05;3.60;;;;;;;13.35;67.36;101373.31;5043653;28;20064;-72
2021/05/12 06:03:18;;;;;;;11.98;3.05;;;;;;;13.61;66.88;101365.22;5038533;28;20060;-72
2021/05/12 06:05:47;;;;;;;15.55;4.25;;;;;;;13.74;66.22;101371.03;5042021;28;20061;-73
2021/05/12 06:08:14;;;;;;;22.10;5.32;;;;;;;13.74;65.94;101360.28;5041369;28;20086;-72
2021/05/12 06:10:41;;;;;;;12.45;3.70;;;;;;;13.54;64.76;101371.72;5045271;28;20063;-72
2021/05/12 06:13:09;;;;;;;18.45;3.90;;;;;;;13.37;66.03;101363.44;5039299;28;20061;-75
2021/05/12 06:15:39;;;;;;;16.55;4.05;;;;;;;13.85;65.67;101364.38;5042071;28;20072;-72
2021/05/12 06:18:06;;;;;;;22.05;4.07;;;;;;;14.06;64.36;101360.00;5036858;28;20072;-71
2021/05/12 06:20:34;;;;;;;25.08;4.18;;;;;;;13.88;64.70;101361.59;5041282;28;20056;-72
2021/05/12 06:23:02;;;;;;;17.92;3.90;;;;;;;14.31;63.54;101367.97;5037193;28;20053;-72
2021/05/12 06:25:37;;;;;;;20.60;4.47;;;;;;;14.05;63.57;101356.44;5045526;28;20053;-71
2021/05/12 06:28:05;;;;;;;17.25;4.55;;;;;;;14.63;63.83;101360.50;5037550;28;20061;-71
2021/05/12 06:30:32;;;;;;;15.30;3.28;;;;;;;14.73;62.69;101364.53;5043290;28;20127;-72
2021/05/12 06:33:00;;;;;;;17.40;4.35;;;;;;;14.49;62.41;101366.34;5037910;28;20065;-73
2021/05/12 06:35:27;;;;;;;18.02;3.92;;;;;;;14.04;62.52;101361.88;5040317;28;20064;-74
2021/05/12 06:38:00;;;;;;;15.25;3.90;;;;;;;14.20;61.62;101366.59;5035880;28;20372;-70
2021/05/12 06:40:27;;;;;;;15.98;3.25;;;;;;;14.54;62.12;101361.66;5039616;28;20066;-73
2021/05/12 06:42:54;;;;;;;15.63;4.40;;;;;;;14.55;61.63;101358.06;5037592;28;20068;-72
2021/05/12 06:45:21;;;;;;;11.60;3.45;;;;;;;14.12;63.22;101362.47;5039448;28;20072;-72
2021/05/12 06:47:53;;;;;;;13.45;3.20;;;;;;;14.23;62.47;101367.41;5035827;28;20054;-71
2021/05/12 06:50:22;;;;;;;14.60;4.43;;;;;;;14.12;62.15;101368.69;5036730;28;20446;-72
2021/05/12 06:52:53;;;;;;;16.33;3.67;;;;;;;14.15;62.90;101370.41;5036398;28;20140;-72
2021/05/12 06:55:21;;;;;;;14.18;3.47;;;;;;;13.97;63.28;101361.22;5038541;28;20102;-71
2021/05/12 06:57:49;;;;;;;16.50;4.07;;;;;;;14.94;61.49;101363.63;5038493;28;20052;-72
2021/05/12 07:00:18;;;;;;;15.57;4.63;;;;;;;15.32;60.01;101363.81;5040846;28;20076;-73
2021/05/12 07:02:49;;;;;;;17.27;5.68;;;;;;;15.38;59.82;101357.28;5039454;28;20086;-72
2021/05/12 07:05:19;;;;;;;17.48;5.30;;;;;;;15.24;58.74;101362.41;5042478;28;20069;-72
2021/05/12 07:07:49;;;;;;;18.33;4.88;;;;;;;15.12;58.03;101364.69;5035209;28;20063;-71
2021/05/12 07:10:17;;;;;;;15.70;5.00;;;;;;;15.51;56.96;101341.50;5039387;28;20060;-72
2021/05/12 07:12:44;;;;;;;16.35;5.22;;;;;;;15.31;57.90;101358.50;5041195;28;20440;-73
2021/05/12 07:15:13;;;;;;;14.70;4.85;;;;;;;15.55;56.95;101350.31;5040249;28;20136;-72
2021/05/12 07:17:40;;;;;;;18.42;5.15;;;;;;;15.50;56.22;101351.38;5038812;28;20069;-71
2021/05/12 07:20:09;;;;;;;11.98;5.15;;;;;;;16.10;55.35;101352.31;5036748;28;20941;-71
2021/05/12 07:22:36;;;;;;;14.90;4.95;;;;;;;16.37;54.25;101358.19;5039545;28;20071;-71
2021/05/12 07:25:06;;;;;;;12.45;5.13;;;;;;;16.71;54.08;101349.31;5038037;28;21777;-71
2021/05/12 07:27:33;;;;;;;14.48;5.28;;;;;;;16.69;54.35;101353.06;5040920;28;21005;-70
2021/05/12 07:30:00;;;;;;;16.25;5.95;;;;;;;16.14;54.92;101359.28;5035590;28;20060;-71
2021/05/12 07:32:28;;;;;;;13.57;6.82;;;;;;;15.89;55.14;101354.19;5037747;28;20156;-70
2021/05/12 07:34:55;;;;;;;15.38;6.40;;;;;;;16.41;54.28;101362.47;5037714;28;20068;-69
2021/05/12 07:37:22;;;;;;;17.58;6.30;;;;;;;16.72;53.36;101358.28;5040242;28;20372;-72
2021/05/12 07:39:50;;;;;;;13.40;6.13;;;;;;;16.17;55.39;101359.13;5039093;28;20111;-71
2021/05/12 07:42:19;;;;;;;16.55;6.65;;;;;;;16.67;53.21;101361.22;5038630;28;20067;-70
2021/05/12 07:44:48;;;;;;;18.55;8.07;;;;;;;16.44;53.29;101348.88;5037935;28;20208;-70
2021/05/12 07:47:16;;;;;;;20.58;7.93;;;;;;;17.09;52.56;101349.22;5040219;28;20053;-71
2021/05/12 07:49:44;;;;;;;12.80;6.90;;;;;;;17.61;51.60;101344.78;5034441;28;20518;-72
2021/05/12 07:52:14;;;;;;;11.25;5.55;;;;;;;17.52;49.10;101351.50;5039080;28;20064;-72
2021/05/12 07:54:41;;;;;;;19.33;5.93;;;;;;;17.05;51.17;101355.75;5036225;28;20056;-72
2021/05/12 07:57:09;;;;;;;15.32;6.55;;;;;;;17.36;51.45;101355.03;5037078;28;20068;-72
2021/05/12 07:59:38;;;;;;;17.13;7.00;;;;;;;17.68;50.09;101340.78;5037095;28;20068;-71
2021/05/12 08:02:05;;;;;;;15.75;6.25;;;;;;;17.68;49.67;101347.06;5036687;28;20083;-74
2021/05/12 08:04:33;;;;;;;18.75;6.85;;;;;;;17.67;49.39;101350.72;5037015;28;20197;-71
2021/05/12 08:07:01;;;;;;;18.55;8.38;;;;;;;17.50;50.67;101345.34;5039818;28;20068;-71
2021/05/12 08:09:29;;;;;;;17.55;7.18;;;;;;;17.93;50.56;101351.16;5035598;28;20216;-72
2021/05/12 08:12:21;;;;;;;11.75;5.82;;;;;;;17.98;48.72;101349.09;5041907;28;20070;-73
2021/05/12 08:14:49;;;;;;;14.68;6.00;;;;;;;18.00;48.36;101351.69;5034099;28;20057;-73
2021/05/12 08:17:16;;;;;;;13.50;6.20;;;;;;;18.08;48.88;101357.53;5033741;28;20053;-74
2021/05/12 08:19:43;;;;;;;14.50;6.78;;;;;;;17.92;48.23;101355.66;5035674;28;20171;-75
2021/05/12 08:22:10;;;;;;;18.02;6.68;;;;;;;18.83;47.11;101342.47;5040760;28;20080;-75
2021/05/12 08:24:38;;;;;;;13.63;6.40;;;;;;;18.61;48.04;101367.16;5034522;28;20061;-74
2021/05/12 08:27:06;;;;;;;18.40;5.43;;;;;;;19.28;45.94;101361.44;5038786;28;20373;-74
2021/05/12 08:29:36;;;;;;;14.48;4.88;;;;;;;19.17;44.32;101359.41;5036861;28;20140;-75
2021/05/12 08:32:05;;;;;;;9.90;4.80;;;;;;;17.88;46.08;101362.22;5039745;28;20139;-75
2021/05/12 08:34:33;;;;;;;16.27;5.70;;;;;;;19.00;45.12;101352.31;5034540;28;20050;-74
2021/05/12 08:37:01;;;;;;;14.98;5.07;;;;;;;18.81;45.46;101362.41;5040546;28;20068;-74
2021/05/12 08:39:28;;;;;;;17.08;5.90;;;;;;;18.75;45.43;101360.94;5037025;28;20064;-73
2021/05/12 08:41:56;;;;;;;17.05;6.20;;;;;;;18.62;46.40;101352.66;5042467;28;20057;-75
2021/05/12 08:44:25;;;;;;;16.10;5.20;;;;;;;18.78;46.30;101360.78;5032978;28;20061;-74
2021/05/12 08:46:54;;;;;;;12.95;5.40;;;;;;;18.35;46.75;101365.06;5042490;28;20139;-75
2021/05/12 08:49:24;;;;;;;12.65;5.53;;;;;;;18.40;45.44;101355.72;5039817;28;20064;-75
2021/05/12 08:51:53;;;;;;;12.38;4.43;;;;;;;18.96;43.23;101361.53;5036367;28;20068;-73
2021/05/12 08:54:20;;;;;;;13.43;3.90;;;;;;;18.55;43.64;101358.53;5034594;28;20057;-74
2021/05/12 08:56:47;;;;;;;10.90;3.33;;;;;;;19.06;42.53;101358.31;5037502;28;20075;-75
2021/05/12 08:59:16;;;;;;;11.43;3.42;;;;;;;19.16;42.00;101359.50;5037301;28;20063;-74
2021/05/12 09:01:43;;;;;;;12.40;3.38;;;;;;;18.82;43.03;101361.47;5037373;28;20071;-76
2021/05/12 09:04:12;;;;;;;16.75;4.15;;;;;;;19.65;41.62;101347.50;5034771;28;20067;-74
2021/05/12 09:06:40;;;;;;;12.63;3.80;;;;;;;19.32;42.80;101349.47;5037859;28;20060;-75
2021/05/12 09:09:08;;;;;;;12.05;3.28;;;;;;;19.64;42.41;101351.19;5036891;28;20072;-76
2021/05/12 09:11:36;;;;;;;12.55;4.32;;;;;;;19.41;42.57;101353.47;5035070;28;20065;-76
2021/05/12 09:14:24;;;;;;;11.80;4.20;;;;;;;20.01;41.52;101347.06;5038085;28;20082;-78
2021/05/12 09:16:51;;;;;;;13.07;3.90;;;;;;;18.79;42.98;101358.94;5035181;28;20435;-78
2021/05/12 09:19:24;;;;;;;14.18;4.97;;;;;;;18.76;45.06;101359.09;5040080;28;20073;-76
2021/05/12 09:21:53;;;;;;;12.93;3.92;;;;;;;18.15;44.75;101356.25;5034482;28;20063;-76
2021/05/12 09:24:23;;;;;;;12.30;4.68;;;;;;;18.37;44.82;101355.03;5040922;28;20424;-76
2021/05/12 09:26:52;;;;;;;15.77;5.13;;;;;;;18.98;44.10;101356.91;5036411;28;20068;-76
2021/05/12 09:29:24;;;;;;;17.40;4.75;;;;;;;18.71;43.83;101353.09;5039914;28;20069;-80
2021/05/12 09:31:52;;;;;;;12.90;3.75;;;;;;;19.33;43.55;101350.34;5036221;28;20072;-77
2021/05/12 09:34:20;;;;;;;17.92;4.28;;;;;;;19.12;41.51;101355.22;5039426;28;20254;-76
2021/05/12 09:36:47;;;;;;;9.13;3.33;;;;;;;19.68;42.07;101350.00;5039609;28;20311;-76
2021/05/12 09:39:15;;;;;;;12.18;3.67;;;;;;;19.49;40.99;101350.28;5040005;28;20056;-77
2021/05/12 09:41:43;;;;;;;10.63;3.58;;;;;;;20.00;40.04;101345.31;5035133;28;20068;-76
2021/05/12 09:44:11;;;;;;;19.25;4.65;;;;;;;19.80;39.39;101343.00;5039820;28;20057;-76
2021/05/12 09:46:40;;;;;;;9.32;3.75;;;;;;;18.61;42.12;101344.63;5035483;28;20331;-77
2021/05/12 09:49:13;;;;;;;10.90;3.17;;;;;;;19.24;40.66;101343.69;5039553;28;20069;-76
2021/05/12 09:51:47;;;;;;;9.57;3.05;;;;;;;18.45;40.15;101332.00;5034384;28;20065;-75
2021/05/12 09:54:18;;;;;;;13.15;4.10;;;;;;;19.26;41.06;101349.84;5041353;28;20084;-77
2021/05/12 09:56:50;;;;;;;8.40;3.80;;;;;;;19.35;39.85;101351.13;5036030;28;20061;-78
2021/05/12 09:59:19;;;;;;;9.35;3.30;;;;;;;18.28;40.22;101346.47;5041140;28;20057;-72
2021/05/12 10:01:49;;;;;;;10.05;3.10;;;;;;;18.21;39.85;101346.94;5036646;28;20957;-71
2021/05/12 10:04:30;;;;;;;10.65;2.88;;;;;;;17.89;41.93;101349.56;5036749;28;20134;-72
2021/05/12 10:06:58;;;;;;;14.35;3.90;;;;;;;18.94;41.76;101346.38;5033878;28;20148;-72
2021/05/12 10:09:28;;;;;;;14.70;4.15;;;;;;;19.38;40.46;101346.41;5030322;28;111555;-71
2021/05/12 10:12:11;;;;;;;11.75;3.35;;;;;;;18.67;39.85;101349.69;4998922;28;20073;-75
2021/05/12 10:14:40;;;;;;;12.50;3.30;;;;;;;19.67;39.47;101334.75;4991090;28;20054;-72
2021/05/12 10:17:10;;;;;;;10.63;2.63;;;;;;;18.27;41.41;101343.91;5002947;28;20372;-72
2021/05/12 10:19:39;;;;;;;10.70;2.38;;;;;;;18.94;42.38;101339.13;4996103;28;20282;-71
2021/05/12 10:22:07;;;;;;;8.40;2.78;;;;;;;20.05;39.74;101343.16;5012399;28;20745;-71
2021/05/12 10:24:38;;;;;;;12.38;3.33;;;;;;;19.56;38.95;101335.41;4999599;28;20379;-74
2021/05/12 10:27:11;;;;;;;10.95;3.40;;;;;;;20.04;39.03;101338.75;5006415;28;20164;-72
2021/05/12 10:29:42;;;;;;;10.77;3.10;;;;;;;19.60;37.08;101331.56;4998383;28;20276;-72
2021/05/12 10:32:24;;;;;;;11.27;2.85;;;;;;;20.27;37.11;101334.53;5006023;28;20448;-72
2021/05/12 10:35:03;;;;;;;13.63;3.75;;;;;;;19.68;38.12;101333.75;4996855;28;20061;-73
2021/05/12 10:37:32;;;;;;;8.73;2.42;;;;;;;19.10;39.41;101335.50;5003945;28;20065;-72
2021/05/12 10:40:02;;;;;;;12.40;2.83;;;;;;;19.45;38.73;101324.38;4998423;28;20057;-77
2021/05/12 10:43:06;;;;;;;13.70;3.35;;;;;;;19.35;40.13;101333.06;5003854;28;20136;-76
2021/05/12 10:45:57;;;;;;;10.73;2.65;;;;;;;17.63;41.47;101342.88;5000092;28;20073;-75
2021/05/12 10:48:29;;;;;;;13.13;2.95;;;;;;;17.80;42.00;101345.53;5003970;28;20062;-75
2021/05/12 10:50:58;;;;;;;8.00;2.40;;;;;;;18.93;41.35;101347.31;5005458;28;20062;-75
2021/05/12 10:53:26;;;;;;;10.25;2.83;;;;;;;18.82;39.65;101339.84;5000625;28;20093;-75
2021/05/12 10:56:05;;;;;;;11.30;2.50;;;;;;;18.69;41.25;101341.50;5002878;28;20062;-76
2021/05/12 10:58:39;;;;;;;15.48;3.33;;;;;;;18.87;41.11;101345.88;5001946;28;20061;-76
2021/05/12 11:01:09;;;;;;;12.27;2.90;;;;;;;19.35;39.85;101327.66;5021675;28;20471;-76
2021/05/12 11:04:13;;;;;;;12.32;4.03;;;;;;;19.31;39.59;101350.44;5002508;28;20066;-75
2021/05/12 11:06:58;;;;;;;12.55;3.20;;;;;;;18.94;40.06;101344.53;5002937;28;20068;-75
2021/05/12 11:09:48;;;;;;;16.35;4.13;;;;;;;19.02;40.23;101335.97;5004294;28;20495;-77
2021/05/12 11:12:23;;;;;;;10.82;2.90;;;;;;;18.51;39.96;101336.22;5001154;28;20061;-76
2021/05/12 11:14:57;;;;;;;15.73;3.60;;;;;;;19.40;38.38;101330.06;5006403;28;20398;-77
2021/05/12 11:17:43;;;;;;;13.20;3.10;;;;;;;19.33;39.21;101320.59;5001604;28;20061;-77
2021/05/12 11:20:16;;;;;;;11.80;3.00;;;;;;;19.40;39.92;101320.13;4999944;28;21333;-76
2021/05/12 11:22:45;;;;;;;12.67;3.13;;;;;;;20.30;36.84;101318.06;4997319;28;20094;-72
2021/05/12 11:25:20;;;;;;;11.18;3.00;;;;;;;20.14;36.90;101315.50;5006636;28;20064;-75
2021/05/12 11:33:53;;;;;;;11.35;3.03;;;;;;;21.13;36.38;101308.06;5001506;28;20444;-78